createdAt,value
2018-06-22T00:02:24.434Z,72.05
2018-06-22T00:04:53.061Z,71.80
2018-06-22T00:07:21.714Z,71.75
2018-06-22T00:09:50.389Z,71.90
2018-06-22T00:12:19.022Z,72.07
2018-06-22T00:14:47.653Z,72.53
2018-06-22T00:17:16.287Z,72.67
2018-06-22T00:19:44.894Z,72.12
2018-06-22T00:22:13.583Z,72.02
2018-06-22T00:24:42.229Z,72.07
2018-06-22T00:27:11.814Z,72.17
2018-06-22T00:29:40.461Z,72.11
2018-06-22T00:32:09.046Z,72.10
2018-06-22T00:34:37.703Z,71.60
2018-06-22T00:37:06.659Z,72.80
2018-06-22T00:39:35.309Z,72.84
2018-06-22T00:42:03.963Z,71.82
2018-06-22T00:44:32.934Z,71.91
2018-06-22T00:47:01.598Z,72.05
2018-06-22T00:49:30.293Z,72.36
2018-06-22T00:51:59.011Z,72.38
2018-06-22T00:54:27.632Z,72.41
2018-06-22T00:56:56.297Z,72.75
2018-06-22T00:59:24.961Z,73.49
2018-06-22T01:01:53.588Z,72.94
2018-06-22T01:04:22.239Z,73.13
2018-06-22T01:06:50.896Z,72.52
2018-06-22T01:09:19.580Z,72.57
2018-06-22T01:11:48.228Z,72.83
2018-06-22T01:14:16.906Z,72.80
2018-06-22T01:16:45.623Z,73.29
2018-06-22T01:19:14.266Z,72.24
2018-06-22T01:21:42.864Z,71.99
2018-06-22T01:24:11.484Z,71.58
2018-06-22T01:26:40.106Z,71.56
2018-06-22T01:29:13.895Z,71.46
2018-06-22T01:31:42.549Z,73.29
2018-06-22T01:34:11.182Z,73.32
2018-06-22T01:36:39.865Z,73.23
2018-06-22T01:39:09.265Z,73.20
2018-06-22T01:41:37.915Z,73.36
2018-06-22T01:44:06.557Z,73.90
2018-06-22T01:46:35.715Z,74.04
2018-06-22T01:49:04.652Z,74.48
2018-06-22T01:51:33.315Z,74.64
2018-06-22T01:54:02.050Z,74.70
2018-06-22T01:56:30.714Z,75.14
2018-06-22T01:58:59.400Z,76.52
2018-06-22T02:01:28.078Z,76.42
2018-06-22T02:03:56.778Z,76.22
2018-06-22T02:06:25.431Z,75.58
2018-06-22T02:08:54.082Z,76.07
2018-06-22T02:11:22.762Z,75.49
2018-06-22T02:13:51.518Z,75.29
2018-06-22T02:16:20.231Z,75.58
2018-06-22T02:18:48.859Z,76.34
2018-06-22T02:21:17.497Z,75.86
2018-06-22T02:23:46.238Z,76.06
2018-06-22T02:26:14.905Z,76.25
2018-06-22T02:28:43.602Z,76.30
2018-06-22T02:31:12.444Z,76.10
2018-06-22T02:33:41.282Z,76.38
2018-06-22T02:36:09.933Z,76.83
2018-06-22T02:38:38.573Z,76.32
2018-06-22T02:41:07.488Z,76.79
2018-06-22T02:43:36.499Z,76.34
2018-06-22T02:46:05.878Z,75.88
2018-06-22T02:48:34.552Z,75.63
2018-06-22T02:51:03.178Z,76.02
2018-06-22T02:53:31.827Z,75.78
2018-06-22T02:56:00.783Z,75.52
2018-06-22T02:58:29.484Z,75.79
2018-06-22T03:00:58.229Z,75.58
2018-06-22T03:03:26.867Z,75.92
2018-06-22T03:05:55.571Z,76.19
2018-06-22T03:08:24.270Z,75.51
2018-06-22T03:10:52.946Z,75.50
2018-06-22T03:13:21.590Z,75.07
2018-06-22T03:15:50.479Z,75.59
2018-06-22T03:18:19.174Z,75.06
2018-06-22T03:20:47.820Z,76.32
2018-06-22T03:23:16.538Z,75.49
2018-06-22T03:25:45.145Z,75.97
2018-06-22T03:28:13.744Z,75.31
2018-06-22T03:30:42.355Z,75.12
2018-06-22T03:33:10.980Z,74.72
2018-06-22T03:35:39.663Z,74.23
2018-06-22T03:38:08.382Z,74.26
2018-06-22T03:40:37.034Z,74.67
2018-06-22T03:43:05.679Z,74.39
2018-06-22T03:45:34.309Z,74.21
2018-06-22T03:48:02.966Z,74.20
2018-06-22T03:50:31.675Z,74.72
2018-06-22T03:53:00.394Z,75.02
2018-06-22T03:55:29.081Z,74.69
2018-06-22T03:57:57.838Z,74.56
2018-06-22T04:00:26.506Z,74.25
2018-06-22T04:02:55.142Z,74.42
2018-06-22T04:05:23.811Z,73.70
2018-06-22T04:07:52.442Z,73.03
2018-06-22T04:10:21.112Z,73.65
2018-06-22T04:12:49.761Z,73.38
2018-06-22T04:15:18.888Z,72.99
2018-06-22T04:17:53.659Z,72.16
2018-06-22T04:20:24.747Z,72.40
2018-06-22T04:22:53.779Z,72.24
2018-06-22T04:25:23.433Z,72.48
2018-06-22T04:27:52.702Z,72.41
2018-06-22T04:30:21.393Z,72.12
2018-06-22T04:32:50.749Z,72.06
2018-06-22T04:35:19.374Z,71.50
2018-06-22T04:37:48.035Z,72.18
2018-06-22T04:40:16.695Z,71.67
2018-06-22T04:42:45.335Z,71.33
2018-06-22T04:45:14.020Z,71.24
2018-06-22T04:47:42.685Z,72.01
2018-06-22T04:50:12.192Z,71.31
2018-06-22T04:52:40.822Z,71.13
2018-06-22T04:55:09.672Z,71.72
2018-06-22T04:57:38.318Z,70.96
2018-06-22T05:00:07.139Z,71.31
2018-06-22T05:02:35.793Z,70.78
2018-06-22T05:05:04.562Z,71.01
2018-06-22T05:07:33.203Z,70.77
2018-06-22T05:10:01.875Z,70.45
2018-06-22T05:12:30.490Z,70.73
2018-06-22T05:14:59.171Z,70.70
2018-06-22T05:17:27.805Z,70.93
2018-06-22T05:19:56.458Z,70.92
2018-06-22T05:22:25.174Z,70.66
2018-06-22T05:24:53.876Z,70.65
2018-06-22T05:27:22.558Z,70.25
2018-06-22T05:29:51.261Z,69.96
2018-06-22T05:32:19.953Z,69.93
2018-06-22T05:34:48.689Z,69.99
2018-06-22T05:37:17.938Z,69.49
2018-06-22T05:39:46.669Z,70.07
2018-06-22T05:42:15.315Z,69.59
2018-06-22T05:44:43.998Z,69.81
2018-06-22T05:47:12.618Z,69.36
2018-06-22T05:49:41.282Z,68.67
2018-06-22T05:52:09.980Z,68.71
2018-06-22T05:54:38.631Z,67.98
2018-06-22T05:57:07.252Z,68.07
2018-06-22T05:59:35.914Z,67.79
2018-06-22T06:02:04.517Z,67.14
2018-06-22T06:04:33.139Z,66.94
2018-06-22T06:07:01.950Z,66.53
2018-06-22T06:09:30.591Z,66.33
2018-06-22T06:11:59.214Z,66.49
2018-06-22T06:14:27.911Z,67.12
2018-06-22T06:16:57.617Z,67.10
2018-06-22T06:19:26.294Z,66.82
2018-06-22T06:21:54.982Z,66.96
2018-06-22T06:24:23.664Z,66.38
2018-06-22T06:26:52.304Z,65.98
2018-06-22T06:29:20.994Z,65.76
2018-06-22T06:31:50.276Z,66.05
2018-06-22T06:34:18.972Z,65.91
2018-06-22T06:36:47.617Z,65.78
2018-06-22T06:39:16.345Z,65.27
2018-06-22T06:41:45.077Z,65.48
2018-06-22T06:44:13.768Z,65.07
2018-06-22T06:46:42.671Z,64.80
2018-06-22T06:49:11.352Z,64.48
2018-06-22T06:51:40.085Z,64.67
2018-06-22T06:54:08.723Z,63.42
2018-06-22T06:56:37.339Z,63.44
2018-06-22T06:59:06.012Z,62.72
2018-06-22T07:01:34.698Z,62.19
2018-06-22T07:04:03.357Z,62.53
2018-06-22T07:06:31.986Z,63.27
2018-06-22T07:09:00.690Z,63.37
2018-06-22T07:11:29.404Z,62.06
2018-06-22T07:13:58.039Z,61.86
2018-06-22T07:16:26.683Z,62.38
2018-06-22T07:18:55.400Z,61.88
2018-06-22T07:21:24.068Z,61.99
2018-06-22T07:23:52.783Z,62.01
2018-06-22T07:26:21.477Z,62.12
2018-06-22T07:28:50.133Z,60.00
2018-06-22T07:31:18.791Z,59.87
2018-06-22T07:33:47.389Z,60.65
2018-06-22T07:36:16.101Z,59.86
2018-06-22T07:38:44.754Z,60.06
2018-06-22T07:41:13.428Z,59.88
2018-06-22T07:43:42.055Z,59.82
2018-06-22T07:46:10.703Z,60.61
2018-06-22T07:48:39.588Z,59.23
2018-06-22T07:51:08.222Z,59.03
2018-06-22T07:53:36.851Z,59.21
2018-06-22T07:56:05.562Z,58.84
2018-06-22T07:58:34.215Z,59.58
2018-06-22T08:01:02.848Z,58.42
2018-06-22T08:03:31.486Z,58.33
2018-06-22T08:06:00.126Z,57.50
2018-06-22T08:08:29.686Z,58.06
2018-06-22T08:10:58.320Z,58.28
2018-06-22T08:13:27.001Z,56.10
2018-06-22T08:15:55.738Z,56.63
2018-06-22T08:18:24.391Z,57.01
2018-06-22T08:20:53.128Z,57.01
2018-06-22T08:23:21.830Z,55.43
2018-06-22T08:25:51.320Z,57.39
2018-06-22T08:28:19.995Z,56.57
2018-06-22T08:30:48.667Z,55.42
2018-06-22T08:33:17.582Z,55.18
2018-06-22T08:35:46.562Z,54.51
2018-06-22T08:38:15.195Z,53.98
2018-06-22T08:40:43.930Z,55.59
2018-06-22T08:43:13.394Z,54.86
2018-06-22T08:45:42.031Z,55.90
2018-06-22T08:48:10.672Z,54.93
2018-06-22T08:50:39.286Z,54.81
2018-06-22T08:53:07.937Z,54.02
2018-06-22T08:55:36.581Z,52.66
2018-06-22T08:58:05.199Z,52.98
2018-06-22T09:00:33.853Z,53.62
2018-06-22T09:03:02.595Z,55.22
2018-06-22T09:05:31.272Z,53.64
2018-06-22T09:08:00.032Z,51.71
2018-06-22T09:10:28.639Z,53.40
2018-06-22T09:12:57.336Z,52.02
2018-06-22T09:15:26.006Z,51.42
2018-06-22T09:17:54.690Z,50.08
2018-06-22T09:20:23.353Z,50.24
2018-06-22T09:22:52.219Z,50.72
2018-06-22T09:25:20.866Z,50.49
2018-06-22T09:27:49.576Z,50.71
2018-06-22T09:30:18.273Z,50.56
2018-06-22T09:32:47.138Z,50.79
2018-06-22T09:35:15.786Z,50.71
2018-06-22T09:37:44.460Z,49.58
2018-06-22T09:40:13.106Z,50.26
2018-06-22T09:42:41.809Z,48.29
2018-06-22T09:45:10.489Z,48.16
2018-06-22T09:47:39.188Z,47.86
2018-06-22T09:50:07.839Z,49.57
2018-06-22T09:52:36.592Z,48.32
2018-06-22T09:55:05.375Z,49.90
2018-06-22T09:57:33.964Z,49.55
2018-06-22T10:00:02.669Z,49.40
2018-06-22T10:02:31.351Z,48.64
2018-06-22T10:04:59.951Z,46.53
2018-06-22T10:07:28.579Z,46.88
2018-06-22T10:09:57.345Z,44.98
2018-06-22T10:12:26.673Z,43.90
2018-06-22T10:14:55.326Z,45.90
2018-06-22T10:17:23.932Z,45.42
2018-06-22T10:19:52.618Z,44.44
2018-06-22T10:22:21.229Z,44.97
2018-06-22T10:24:49.883Z,44.18
2018-06-22T10:27:18.610Z,43.16
2018-06-22T10:29:47.341Z,43.81
2018-06-22T10:32:16.440Z,44.37
2018-06-22T10:34:45.127Z,44.56
2018-06-22T10:37:13.802Z,45.18
2018-06-22T10:39:42.489Z,45.05
2018-06-22T10:42:11.135Z,45.27
2018-06-22T10:44:39.895Z,45.37
2018-06-22T10:47:08.608Z,45.35
2018-06-22T10:49:37.388Z,45.26
2018-06-22T10:52:06.066Z,45.10
2018-06-22T10:54:34.719Z,44.38
2018-06-22T10:57:03.413Z,42.31
2018-06-22T10:59:32.814Z,44.15
2018-06-22T11:02:01.503Z,44.84
2018-06-22T11:04:30.126Z,43.16
2018-06-22T11:06:58.825Z,41.85
2018-06-22T11:09:27.478Z,40.96
2018-06-22T11:11:56.261Z,42.26
2018-06-22T11:14:25.097Z,42.13
2018-06-22T11:16:53.739Z,40.59
2018-06-22T11:19:22.386Z,41.59
2018-06-22T11:21:51.046Z,43.08
2018-06-22T11:24:19.706Z,44.47
2018-06-22T11:26:48.309Z,46.61
2018-06-22T11:29:16.933Z,48.47
2018-06-22T11:31:45.573Z,50.14
2018-06-22T11:34:14.669Z,53.15
2018-06-22T11:36:43.284Z,54.73
2018-06-22T11:39:12.559Z,56.42
2018-06-22T11:41:41.964Z,57.67
2018-06-22T11:44:11.093Z,60.60
2018-06-22T11:46:40.252Z,61.59
2018-06-22T11:49:09.078Z,62.72
2018-06-22T11:51:37.678Z,63.04
2018-06-22T11:54:06.395Z,65.20
2018-06-22T11:56:35.026Z,64.91
2018-06-22T11:59:03.717Z,66.42
2018-06-22T12:01:32.338Z,70.59
2018-06-22T12:04:01.007Z,70.05
2018-06-22T12:06:29.674Z,68.10
2018-06-22T12:08:58.357Z,66.74
2018-06-22T12:11:27.024Z,65.53
2018-06-22T12:13:55.639Z,69.12
2018-06-22T12:16:24.468Z,68.54
2018-06-22T12:18:53.119Z,67.37
2018-06-22T12:21:21.782Z,70.73
2018-06-22T12:23:50.464Z,70.51
2018-06-22T12:26:19.120Z,70.11
2018-06-22T12:28:47.722Z,71.79
2018-06-22T12:31:16.400Z,72.25
2018-06-22T12:33:45.088Z,72.56
2018-06-22T12:36:13.746Z,74.87
2018-06-22T12:38:43.403Z,74.83
2018-06-22T12:41:12.033Z,74.53
2018-06-22T12:43:40.747Z,73.96
2018-06-22T12:46:09.390Z,72.85
2018-06-22T12:48:38.066Z,73.31
2018-06-22T12:51:07.288Z,73.82
2018-06-22T12:53:36.536Z,71.54
2018-06-22T12:56:05.662Z,72.44
2018-06-22T12:58:34.278Z,70.28
2018-06-22T13:01:03.650Z,69.79
2018-06-22T13:03:32.269Z,69.65
2018-06-22T13:06:00.924Z,72.10
2018-06-22T13:08:29.563Z,70.54
2018-06-22T13:10:58.224Z,67.97
2018-06-22T13:13:26.849Z,61.96
2018-06-22T13:15:55.487Z,60.64
2018-06-22T13:18:24.084Z,61.09
2018-06-22T13:20:52.739Z,60.97
2018-06-22T13:23:21.332Z,62.73
2018-06-22T13:25:50.043Z,64.11
2018-06-22T13:28:18.951Z,60.88
2018-06-22T13:30:47.787Z,62.75
2018-06-22T13:33:16.519Z,62.24
2018-06-22T13:35:45.180Z,60.17
2018-06-22T13:38:13.815Z,59.83
2018-06-22T13:40:42.445Z,57.80
2018-06-22T13:43:11.080Z,57.92
2018-06-22T13:45:39.818Z,57.60
2018-06-22T13:48:08.916Z,56.63
2018-06-22T13:50:37.963Z,58.00
2018-06-22T13:53:06.908Z,57.69
2018-06-22T13:55:35.543Z,55.96
2018-06-22T13:58:04.276Z,55.10
2018-06-22T14:00:32.976Z,54.71
2018-06-22T14:03:01.612Z,55.34
2018-06-22T14:05:35.459Z,53.18
2018-06-22T14:08:04.190Z,56.01
2018-06-22T14:10:33.042Z,52.61
2018-06-22T14:13:01.731Z,52.66
2018-06-22T14:15:30.397Z,54.52
2018-06-22T14:17:59.026Z,54.61
2018-06-22T14:20:27.661Z,52.73
2018-06-22T14:22:56.326Z,54.85
2018-06-22T14:25:25.069Z,54.34
2018-06-22T14:27:53.718Z,55.68
2018-06-22T14:30:22.434Z,56.50
2018-06-22T14:32:51.118Z,57.00
2018-06-22T14:35:20.210Z,57.81
2018-06-22T14:37:48.932Z,57.06
2018-06-22T14:40:17.720Z,57.06
2018-06-22T14:42:46.433Z,58.18
2018-06-22T14:45:15.228Z,58.36
2018-06-22T14:47:43.822Z,56.96
2018-06-22T14:50:17.782Z,56.32
2018-06-22T14:52:47.038Z,57.22
2018-06-22T14:55:20.670Z,57.48
2018-06-22T14:57:54.425Z,56.63
2018-06-22T15:00:28.353Z,55.97
2018-06-22T15:03:02.200Z,56.33
2018-06-22T15:05:36.051Z,55.99
2018-06-22T15:08:06.435Z,56.99
2018-06-22T15:10:35.053Z,57.05
2018-06-22T15:13:03.655Z,56.52
2018-06-22T15:15:32.322Z,57.30
2018-06-22T15:18:01.052Z,59.74
2018-06-22T15:20:29.776Z,58.83
2018-06-22T15:22:58.494Z,60.30
2018-06-22T15:25:27.222Z,60.67
2018-06-22T15:27:55.859Z,61.40
2018-06-22T15:30:24.672Z,61.69
2018-06-22T15:32:53.332Z,62.13
2018-06-22T15:35:27.334Z,62.17
2018-06-22T15:38:01.160Z,62.26
2018-06-22T15:40:35.096Z,60.79
2018-06-22T15:43:09.270Z,59.44
2018-06-22T15:45:43.210Z,59.84
2018-06-22T15:48:17.037Z,59.15
2018-06-22T15:50:50.950Z,57.35
2018-06-22T15:53:24.857Z,60.38
2018-06-22T15:55:57.605Z,60.56
2018-06-22T15:58:26.285Z,61.78
2018-06-22T16:00:54.957Z,63.53
2018-06-22T16:03:28.773Z,63.02
2018-06-22T16:05:57.392Z,63.60
2018-06-22T16:08:26.058Z,64.11
2018-06-22T16:10:54.738Z,63.57
2018-06-22T16:13:23.480Z,63.97
2018-06-22T16:15:57.271Z,63.74
2018-06-22T16:18:31.043Z,63.54
2018-06-22T16:21:04.917Z,63.07
2018-06-22T16:23:38.746Z,63.76
2018-06-22T16:26:12.695Z,63.67
2018-06-22T16:28:41.409Z,63.47
2018-06-22T16:31:10.037Z,62.92
2018-06-22T16:33:42.774Z,62.75
2018-06-22T16:36:11.743Z,61.31
2018-06-22T16:38:40.356Z,61.15
2018-06-22T16:41:09.010Z,61.19
2018-06-22T16:43:37.624Z,60.38
2018-06-22T16:46:06.358Z,59.95
2018-06-22T16:48:34.984Z,59.98
2018-06-22T16:51:03.721Z,60.40
2018-06-22T16:53:32.399Z,60.83
2018-06-22T16:56:01.048Z,60.90
2018-06-22T16:58:34.966Z,61.42
2018-06-22T17:01:03.670Z,60.90
2018-06-22T17:03:32.353Z,61.30
2018-06-22T17:06:01.147Z,61.46
2018-06-22T17:08:34.920Z,61.21
2018-06-22T17:11:08.856Z,62.12
2018-06-22T17:13:42.884Z,62.94
2018-06-22T17:16:16.805Z,65.28
2018-06-22T17:18:51.587Z,66.52
2018-06-22T17:21:21.018Z,65.64
2018-06-22T17:23:49.673Z,65.77
2018-06-22T17:26:18.301Z,67.56
2018-06-22T17:28:46.985Z,68.49
2018-06-22T17:31:15.735Z,68.70
2018-06-22T17:33:44.436Z,68.86
2018-06-22T17:36:13.167Z,68.33
2018-06-22T17:38:41.776Z,69.03
2018-06-22T17:41:10.450Z,68.11
2018-06-22T17:43:39.148Z,68.54
2018-06-22T17:46:07.892Z,67.70
2018-06-22T17:48:36.567Z,68.84
2018-06-22T17:51:05.311Z,69.12
2018-06-22T17:53:33.983Z,68.87
2018-06-22T17:56:02.604Z,69.13
2018-06-22T17:58:31.205Z,70.03
2018-06-22T18:01:05.083Z,70.50
2018-06-22T18:03:38.945Z,70.12
2018-06-22T18:06:12.816Z,71.12
2018-06-22T18:08:46.449Z,71.71
2018-06-22T18:11:20.166Z,71.65
2018-06-22T18:13:54.803Z,71.17
2018-06-22T18:16:23.499Z,71.31
2018-06-22T18:18:52.245Z,70.27
2018-06-22T18:21:21.426Z,70.50
2018-06-22T18:23:50.126Z,71.77
2018-06-22T18:26:18.858Z,70.78
2018-06-22T18:28:47.519Z,71.88
2018-06-22T18:31:16.147Z,72.08
2018-06-22T18:33:44.763Z,71.99
2018-06-22T18:36:14.059Z,71.78
2018-06-22T18:38:42.776Z,72.01
2018-06-22T18:41:11.427Z,71.99
2018-06-22T18:43:45.315Z,72.79
2018-06-22T18:46:13.970Z,73.73
2018-06-22T18:48:42.659Z,72.94
2018-06-22T18:51:11.486Z,73.58
2018-06-22T18:53:45.359Z,73.68
2018-06-22T18:56:19.060Z,73.02
2018-06-22T18:58:52.838Z,73.19
2018-06-22T19:01:26.671Z,73.00
2018-06-22T19:03:55.574Z,73.14
2018-06-22T19:06:24.303Z,72.43
2018-06-22T19:08:52.991Z,71.77
2018-06-22T19:11:21.721Z,71.92
2018-06-22T19:13:50.434Z,71.87
2018-06-22T19:16:19.091Z,71.75
2018-06-22T19:18:47.898Z,70.75
2018-06-22T19:21:16.498Z,71.51
2018-06-22T19:23:45.233Z,70.71
2018-06-22T19:26:14.041Z,70.83
2018-06-22T19:28:42.679Z,70.97
2018-06-22T19:31:11.372Z,71.15
2018-06-22T19:33:40.054Z,71.34
2018-06-22T19:36:08.758Z,70.69
2018-06-22T19:38:37.511Z,70.66
2018-06-22T19:41:06.180Z,71.95
2018-06-22T19:43:39.978Z,71.48
2018-06-22T19:46:13.879Z,71.61
2018-06-22T19:48:47.782Z,72.66
2018-06-22T19:51:22.195Z,72.15
2018-06-22T19:53:55.905Z,72.22
2018-06-22T19:56:24.592Z,72.12
2018-06-22T19:58:53.290Z,72.49
2018-06-22T20:01:22.082Z,72.93
2018-06-22T20:03:50.795Z,72.72
2018-06-22T20:06:19.805Z,72.92
2018-06-22T20:08:48.816Z,73.46
2018-06-22T20:11:17.508Z,72.80
2018-06-22T20:13:46.524Z,73.04
2018-06-22T20:16:15.705Z,73.62
2018-06-22T20:18:44.515Z,73.51
2018-06-22T20:21:13.766Z,74.99
2018-06-22T20:23:42.426Z,75.43
2018-06-22T20:26:11.086Z,75.20
2018-06-22T20:28:39.758Z,76.15
2018-06-22T20:31:08.547Z,74.97
2018-06-22T20:33:37.402Z,75.54
2018-06-22T20:36:11.317Z,75.29
2018-06-22T20:38:45.211Z,75.01
2018-06-22T20:41:21.386Z,74.21
2018-06-22T20:43:55.230Z,74.49
2018-06-22T20:46:29.012Z,74.07
2018-06-22T20:49:02.702Z,74.93
2018-06-22T20:51:46.866Z,75.09
2018-06-22T20:54:15.522Z,74.78
2018-06-22T20:56:44.190Z,74.82
2018-06-22T20:59:12.825Z,74.91
2018-06-22T21:01:41.535Z,75.25
2018-06-22T21:04:10.166Z,75.42
2018-06-22T21:06:39.188Z,75.74
2018-06-22T21:09:09.096Z,75.66
2018-06-22T21:11:37.786Z,76.03
2018-06-22T21:14:06.577Z,75.96
2018-06-22T21:16:35.799Z,75.89
2018-06-22T21:19:04.444Z,76.06
2018-06-22T21:21:38.204Z,76.42
2018-06-22T21:24:06.824Z,76.66
2018-06-22T21:26:35.552Z,76.04
2018-06-22T21:29:09.448Z,76.12
2018-06-22T21:31:43.324Z,75.96
2018-06-22T21:34:17.229Z,75.59
2018-06-22T21:36:50.934Z,75.56
2018-06-22T21:39:19.724Z,75.74
2018-06-22T21:41:48.357Z,74.98
2018-06-22T21:44:17.049Z,74.23
2018-06-22T21:46:45.757Z,73.95
2018-06-22T21:49:14.419Z,74.17
2018-06-22T21:51:43.061Z,74.07
2018-06-22T21:54:12.433Z,74.76
2018-06-22T21:56:41.058Z,75.20
2018-06-22T21:59:09.757Z,75.95
2018-06-22T22:01:38.531Z,75.98
2018-06-22T22:04:07.123Z,76.57
2018-06-22T22:06:35.828Z,77.29
2018-06-22T22:09:06.378Z,76.88
2018-06-22T22:11:40.157Z,77.00
2018-06-22T22:14:08.861Z,77.06
2018-06-22T22:16:37.451Z,76.37
2018-06-22T22:19:06.090Z,76.81
2018-06-22T22:21:34.936Z,76.50
2018-06-22T22:24:03.730Z,75.67
2018-06-22T22:26:32.432Z,74.72
2018-06-22T22:29:01.070Z,74.70
2018-06-22T22:31:29.869Z,74.11
2018-06-22T22:33:58.511Z,75.02
2018-06-22T22:36:27.185Z,74.48
2018-06-22T22:38:55.982Z,75.11
2018-06-22T22:41:24.617Z,75.54
2018-06-22T22:43:53.282Z,74.95
2018-06-22T22:46:22.052Z,75.01
2018-06-22T22:48:50.667Z,75.37
2018-06-22T22:51:19.455Z,75.85
2018-06-22T22:53:48.123Z,76.41
2018-06-22T22:56:16.792Z,76.50
2018-06-22T22:58:45.456Z,76.80
2018-06-22T23:01:14.176Z,76.79
2018-06-22T23:03:42.886Z,76.76
2018-06-22T23:06:11.528Z,76.64
2018-06-22T23:08:40.280Z,76.81
2018-06-22T23:11:09.013Z,76.36
2018-06-22T23:13:37.750Z,75.92
2018-06-22T23:16:06.647Z,75.99
2018-06-22T23:18:35.291Z,76.31
2018-06-22T23:21:04.033Z,75.73
2018-06-22T23:23:37.536Z,76.01
2018-06-22T23:26:06.542Z,75.92
2018-06-22T23:28:35.249Z,75.61
2018-06-22T23:31:05.196Z,75.53
2018-06-22T23:33:34.191Z,75.64
2018-06-22T23:36:03.846Z,76.08
2018-06-22T23:38:33.087Z,75.92
2018-06-22T23:41:01.732Z,76.19
2018-06-22T23:43:30.642Z,76.50
2018-06-22T23:45:59.290Z,76.06
2018-06-22T23:48:27.901Z,76.30
2018-06-22T23:50:56.547Z,76.70
2018-06-22T23:53:25.182Z,76.61
2018-06-22T23:55:53.850Z,76.84
2018-06-22T23:58:22.543Z,76.59
